Time;durP1;ratioP1;P1;durP2;ratioP2;P2;SDS_P1;SDS_P2;PMS_P1;PMS_P2;Temp;Humidity;BMP_temperature;BMP_pressure;BME280_temperature;BME280_humidity;BME280_pressure;Samples;Min_cycle;Max_cycle;Signal;HPM_P1;HPM_P2
2023/07/01 00:01:41;;;;;;;12.05;9.63;;;;;;;;;;8104553;29;20063;-93
2023/07/01 00:05:45;;;;;;;11.95;10.20;;;;;;;;;;8171060;29;20130;-95
2023/07/01 00:09:48;;;;;;;11.00;9.77;;;;;;;;;;8171548;29;20125;-94
2023/07/01 00:27:44;;;;;;;13.18;11.77;;;;;;;;;;8058303;29;20064;-92
2023/07/01 00:31:48;;;;;;;14.10;11.23;;;;;;;;;;8062411;29;20131;-93
2023/07/01 00:35:53;;;;;;;14.43;11.57;;;;;;;;;;8077466;29;20089;-95
2023/07/01 00:39:56;;;;;;;14.98;12.52;;;;;;;;;;8062405;29;20148;-95
2023/07/01 00:43:59;;;;;;;14.43;12.07;;;;;;;;;;8077349;29;20552;-94
2023/07/01 00:48:03;;;;;;;16.85;12.95;;;;;;;;;;8077664;29;20093;-94
2023/07/01 00:52:08;;;;;;;17.98;13.82;;;;;;;;;;8101021;29;20083;-94
2023/07/01 00:56:12;;;;;;;14.43;12.30;;;;;;;;;;8188550;29;20062;-93
2023/07/01 01:00:15;;;;;;;16.17;13.00;;;;;;;;;;8187943;29;20047;-94
2023/07/01 01:04:29;;;;;;;18.65;14.45;;;;;;;;;;8204358;28;20086;-94
2023/07/01 01:08:43;;;;;;;18.00;13.95;;;;;;;;;;8187751;29;20043;-93
2023/07/01 01:12:47;;;;;;;16.20;13.88;;;;;;;;;;8217242;28;20215;-93
2023/07/01 01:16:51;;;;;;;16.33;13.38;;;;;;;;;;8239229;28;20128;-94
2023/07/01 01:20:54;;;;;;;16.38;13.40;;;;;;;;;;8229149;28;20061;-95
2023/07/01 01:25:05;;;;;;;17.25;13.27;;;;;;;;;;8239427;28;20074;-95
2023/07/01 01:29:10;;;;;;;18.20;13.63;;;;;;;;;;8232079;28;20522;-95
2023/07/01 01:33:13;;;;;;;17.85;15.95;;;;;;;;;;8210637;28;20098;-95
2023/07/01 01:37:28;;;;;;;19.35;14.98;;;;;;;;;;8230850;28;20082;-96
2023/07/01 01:41:37;;;;;;;17.13;14.35;;;;;;;;;;8219624;28;20087;-96
2023/07/01 01:45:44;;;;;;;20.92;15.13;;;;;;;;;;8216734;28;20054;-95
2023/07/01 01:49:51;;;;;;;16.65;13.95;;;;;;;;;;8222871;28;20065;-95
2023/07/01 01:53:58;;;;;;;19.38;16.13;;;;;;;;;;8248033;28;20074;-96
2023/07/01 02:03:49;;;;;;;20.60;17.58;;;;;;;;;;8138841;29;20109;-96
2023/07/01 02:08:08;;;;;;;24.98;19.75;;;;;;;;;;8128426;29;20107;-95
2023/07/01 02:12:13;;;;;;;23.50;19.08;;;;;;;;;;8132049;29;20160;-96
2023/07/01 02:16:22;;;;;;;21.35;18.27;;;;;;;;;;8137513;29;20108;-96
2023/07/01 02:21:08;;;;;;;21.75;18.33;;;;;;;;;;8119656;29;20056;-96
2023/07/01 02:31:49;;;;;;;25.88;19.02;;;;;;;;;;7945712;30;20104;-96
2023/07/01 03:26:54;;;;;;;27.08;19.42;;;;;;;;;;8241921;28;20074;-96
2023/07/01 03:30:58;;;;;;;22.58;19.15;;;;;;;;;;8221345;28;20058;-96
2023/07/01 03:35:01;;;;;;;21.48;18.27;;;;;;;;;;8243580;28;20047;-96
2023/07/01 03:39:05;;;;;;;22.77;18.70;;;;;;;;;;8242631;28;20070;-96
2023/07/01 03:43:09;;;;;;;20.88;18.67;;;;;;;;;;8225969;28;20150;-96
2023/07/01 03:47:13;;;;;;;22.63;18.95;;;;;;;;;;8251634;28;20495;-96
2023/07/01 03:51:16;;;;;;;22.70;17.38;;;;;;;;;;8233906;28;20046;-96
2023/07/01 04:05:19;;;;;;;23.90;21.13;;;;;;;;;;8073446;29;20056;-96
2023/07/01 04:09:32;;;;;;;21.98;17.67;;;;;;;;;;8064664;29;20517;-96
2023/07/01 04:13:36;;;;;;;19.85;17.13;;;;;;;;;;8070598;29;20048;-96
2023/07/01 04:17:56;;;;;;;20.23;17.48;;;;;;;;;;8087001;29;20045;-96
2023/07/01 04:22:05;;;;;;;25.33;17.67;;;;;;;;;;8066257;29;20162;-96
2023/07/01 04:26:08;;;;;;;19.13;17.05;;;;;;;;;;8103159;29;20048;-95
2023/07/01 04:30:13;;;;;;;19.13;16.17;;;;;;;;;;8120788;29;20142;-96
2023/07/01 05:05:53;;;;;;;12.70;10.48;;;;;;;;;;8233787;28;20134;-96
2023/07/01 05:09:58;;;;;;;11.30;10.13;;;;;;;;;;8238391;28;20055;-95
2023/07/01 05:14:05;;;;;;;11.40;9.68;;;;;;;;;;8221878;28;20457;-94
2023/07/01 05:18:13;;;;;;;12.23;10.93;;;;;;;;;;8229003;28;20055;-96
2023/07/01 05:22:41;;;;;;;11.25;10.05;;;;;;;;;;8230042;28;20114;-95
2023/07/01 05:26:46;;;;;;;12.40;10.63;;;;;;;;;;8242813;28;20054;-94
2023/07/01 05:35:16;;;;;;;11.00;9.85;;;;;;;;;;8278721;28;20070;-96
2023/07/01 05:57:05;;;;;;;12.23;10.02;;;;;;;;;;8035842;29;20067;-96
2023/07/01 06:06:37;;;;;;;10.60;9.50;;;;;;;;;;8268158;28;20089;-94
2023/07/01 06:10:42;;;;;;;10.23;8.48;;;;;;;;;;8283767;28;20039;-95
2023/07/01 06:25:36;;;;;;;8.37;7.40;;;;;;;;;;8225861;28;19953;-96
2023/07/01 06:29:54;;;;;;;7.55;6.40;;;;;;;;;;8226857;28;20407;-94
2023/07/01 06:33:57;;;;;;;9.15;6.22;;;;;;;;;;8247479;28;20533;-95
2023/07/01 06:38:00;;;;;;;6.53;5.68;;;;;;;;;;8264684;28;20065;-94
2023/07/01 06:42:06;;;;;;;7.18;6.03;;;;;;;;;;8264824;28;20055;-95
2023/07/01 06:46:09;;;;;;;6.68;5.30;;;;;;;;;;8270768;28;20069;-96
2023/07/01 06:50:12;;;;;;;7.10;5.75;;;;;;;;;;8258368;28;20136;-96
2023/07/01 06:54:16;;;;;;;6.57;5.88;;;;;;;;;;8268121;28;20061;-96
2023/07/01 06:58:20;;;;;;;7.60;6.25;;;;;;;;;;8270399;28;20058;-95
2023/07/01 07:02:24;;;;;;;9.05;6.70;;;;;;;;;;8284673;28;20471;-95
2023/07/01 07:06:27;;;;;;;7.32;6.03;;;;;;;;;;8255505;28;20051;-95
2023/07/01 07:10:30;;;;;;;8.38;5.82;;;;;;;;;;8279754;28;20046;-92
2023/07/01 07:14:35;;;;;;;5.85;5.25;;;;;;;;;;8274507;28;20509;-96
2023/07/01 07:18:38;;;;;;;7.35;5.70;;;;;;;;;;8261030;28;20046;-93
2023/07/01 07:22:41;;;;;;;6.95;5.80;;;;;;;;;;8274519;28;20054;-94
2023/07/01 07:26:55;;;;;;;8.98;7.53;;;;;;;;;;8273873;28;20058;-94
2023/07/01 07:55:23;;;;;;;7.60;5.90;;;;;;;;;;9053419;23;20087;-90
2023/07/01 07:59:29;;;;;;;7.50;6.40;;;;;;;;;;8302044;28;20065;-94
2023/07/01 08:03:35;;;;;;;7.63;5.65;;;;;;;;;;8297547;28;20062;-91
2023/07/01 08:07:38;;;;;;;8.38;5.97;;;;;;;;;;8290037;28;20397;-94
2023/07/01 08:11:42;;;;;;;8.55;6.93;;;;;;;;;;8278700;28;20061;-94
2023/07/01 08:15:45;;;;;;;9.73;6.72;;;;;;;;;;8286176;28;20046;-96
2023/07/01 08:19:50;;;;;;;8.85;8.00;;;;;;;;;;8299918;28;20046;-94
2023/07/01 08:23:54;;;;;;;9.15;8.20;;;;;;;;;;8302648;28;20089;-94
2023/07/01 08:27:57;;;;;;;8.85;7.95;;;;;;;;;;8283101;28;20066;-89
2023/07/01 08:32:00;;;;;;;10.32;8.70;;;;;;;;;;8288926;28;20058;-90
2023/07/01 08:36:06;;;;;;;9.60;8.60;;;;;;;;;;8289094;28;20194;-95
2023/07/01 08:40:14;;;;;;;9.32;8.40;;;;;;;;;;8280633;28;20080;-96
2023/07/01 08:48:47;;;;;;;9.63;8.60;;;;;;;;;;8307544;28;20066;-95
2023/07/01 08:53:01;;;;;;;9.50;8.50;;;;;;;;;;8305753;28;20050;-96
2023/07/01 08:57:06;;;;;;;9.15;7.68;;;;;;;;;;8305143;28;20080;-96
2023/07/01 09:01:09;;;;;;;9.02;8.10;;;;;;;;;;8282105;28;20054;-95
2023/07/01 09:05:12;;;;;;;9.75;7.70;;;;;;;;;;8286039;28;20580;-96
2023/07/01 09:09:17;;;;;;;9.63;7.78;;;;;;;;;;8300174;28;20046;-95
2023/07/01 09:13:20;;;;;;;8.50;7.38;;;;;;;;;;8292911;28;20050;-95
2023/07/01 09:17:28;;;;;;;8.98;6.88;;;;;;;;;;8295297;28;20128;-95
2023/07/01 09:21:38;;;;;;;7.45;5.82;;;;;;;;;;8290259;28;20080;-95
2023/07/01 09:41:37;;;;;;;7.82;6.15;;;;;;;;;;8275074;28;20144;-96
2023/07/01 09:45:54;;;;;;;7.30;6.43;;;;;;;;;;8298258;28;20053;-95
2023/07/01 09:49:58;;;;;;;6.95;5.95;;;;;;;;;;8295545;28;20077;-94
2023/07/01 09:54:03;;;;;;;7.20;6.32;;;;;;;;;;8282834;28;20081;-93
2023/07/01 09:58:06;;;;;;;9.57;6.68;;;;;;;;;;8288952;28;20075;-93
2023/07/01 10:02:09;;;;;;;7.18;6.25;;;;;;;;;;8286112;28;20058;-94
2023/07/01 10:06:13;;;;;;;7.85;6.43;;;;;;;;;;8294819;28;20053;-94
2023/07/01 10:10:21;;;;;;;7.03;6.32;;;;;;;;;;8277406;28;20140;-93
2023/07/01 10:14:26;;;;;;;7.63;6.43;;;;;;;;;;8296019;28;20490;-95
2023/07/01 10:18:31;;;;;;;7.72;6.35;;;;;;;;;;8279034;28;20057;-91
2023/07/01 10:22:34;;;;;;;7.50;6.18;;;;;;;;;;8300101;28;20113;-94
2023/07/01 10:26:43;;;;;;;8.23;6.43;;;;;;;;;;8294998;28;20058;-94
2023/07/01 10:31:13;;;;;;;8.30;6.15;;;;;;;;;;8279690;28;20070;-95
2023/07/01 10:35:21;;;;;;;7.88;6.15;;;;;;;;;;8299097;28;20050;-95
2023/07/01 10:39:32;;;;;;;7.93;6.65;;;;;;;;;;8301504;28;20053;-94
2023/07/01 10:43:40;;;;;;;9.95;6.85;;;;;;;;;;8300861;28;20050;-96
2023/07/01 10:48:07;;;;;;;7.28;6.55;;;;;;;;;;8285949;28;20100;-91
2023/07/01 10:52:11;;;;;;;8.10;6.70;;;;;;;;;;8298019;28;20057;-96
2023/07/01 10:56:15;;;;;;;9.05;7.60;;;;;;;;;;8308117;28;20502;-96
2023/07/01 11:00:43;;;;;;;10.40;7.10;;;;;;;;;;8285440;28;20132;-94
2023/07/01 11:05:06;;;;;;;8.57;6.90;;;;;;;;;;8317606;28;20054;-94
2023/07/01 11:09:38;;;;;;;9.25;7.32;;;;;;;;;;8311373;28;20041;-95
2023/07/01 11:13:56;;;;;;;8.38;7.00;;;;;;;;;;8302121;28;20046;-92
2023/07/01 11:18:01;;;;;;;11.73;7.57;;;;;;;;;;8294964;28;20053;-92
2023/07/01 11:22:05;;;;;;;9.90;7.25;;;;;;;;;;8296651;28;20065;-92
2023/07/01 11:26:18;;;;;;;10.57;7.50;;;;;;;;;;8301391;28;20062;-94
2023/07/01 11:30:33;;;;;;;8.73;7.63;;;;;;;;;;8286787;28;20552;-96
2023/07/01 11:34:37;;;;;;;9.43;7.25;;;;;;;;;;8303090;28;20058;-95
2023/07/01 11:38:41;;;;;;;10.18;7.90;;;;;;;;;;8285924;28;20058;-96
2023/07/01 11:42:43;;;;;;;9.38;7.18;;;;;;;;;;8281388;28;20077;-94
2023/07/01 11:46:47;;;;;;;9.85;8.05;;;;;;;;;;8300399;28;20491;-94
2023/07/01 11:50:55;;;;;;;9.57;7.78;;;;;;;;;;8285239;28;20533;-94
2023/07/01 11:59:44;;;;;;;10.27;7.90;;;;;;;;;;8273377;28;20054;-95
2023/07/01 12:03:47;;;;;;;9.43;7.90;;;;;;;;;;8259851;28;20054;-95
2023/07/01 12:07:58;;;;;;;10.10;8.20;;;;;;;;;;8279621;28;20406;-95
2023/07/01 12:12:01;;;;;;;11.80;8.40;;;;;;;;;;8289722;28;20497;-94
2023/07/01 12:16:04;;;;;;;10.73;7.47;;;;;;;;;;8287021;28;20058;-95
2023/07/01 12:20:11;;;;;;;10.05;8.27;;;;;;;;;;8310113;28;20057;-95
2023/07/01 12:25:16;;;;;;;9.10;7.20;;;;;;;;;;8277322;28;20061;-96
2023/07/01 12:29:40;;;;;;;13.85;7.78;;;;;;;;;;8229285;28;20057;-96
2023/07/01 12:33:43;;;;;;;12.32;7.40;;;;;;;;;;8235738;28;20057;-96
2023/07/01 12:38:09;;;;;;;10.93;7.13;;;;;;;;;;8258574;28;20057;-96
2023/07/01 12:42:35;;;;;;;12.70;7.80;;;;;;;;;;8278663;28;20084;-96
2023/07/01 12:46:43;;;;;;;11.43;8.07;;;;;;;;;;8276195;28;20051;-96
2023/07/01 12:51:01;;;;;;;11.50;8.25;;;;;;;;;;8265885;28;20058;-96
2023/07/01 12:55:14;;;;;;;9.85;7.53;;;;;;;;;;8257076;28;20058;-96
2023/07/01 12:59:54;;;;;;;10.93;8.13;;;;;;;;;;8267227;28;20062;-94
2023/07/01 13:04:21;;;;;;;10.93;7.60;;;;;;;;;;8300062;28;20057;-94
2023/07/01 13:08:24;;;;;;;8.65;7.57;;;;;;;;;;8288653;28;20057;-94
2023/07/01 13:12:28;;;;;;;14.73;10.77;;;;;;;;;;8309769;28;20058;-92
2023/07/01 13:16:36;;;;;;;10.07;8.25;;;;;;;;;;8310853;28;20069;-93
2023/07/01 13:20:41;;;;;;;11.73;8.45;;;;;;;;;;8290505;28;20116;-89
2023/07/01 13:24:45;;;;;;;12.50;8.32;;;;;;;;;;8292732;28;20080;-90
2023/07/01 13:28:48;;;;;;;10.30;7.90;;;;;;;;;;8288431;28;20115;-90
2023/07/01 13:32:51;;;;;;;13.40;8.55;;;;;;;;;;8291946;28;20114;-91
2023/07/01 13:36:55;;;;;;;11.02;8.38;;;;;;;;;;8303739;28;20053;-90
2023/07/01 13:40:58;;;;;;;13.65;8.60;;;;;;;;;;8293366;28;20133;-90
2023/07/01 13:45:03;;;;;;;11.27;9.30;;;;;;;;;;8279616;28;20414;-89
2023/07/01 13:49:07;;;;;;;12.10;8.55;;;;;;;;;;8283333;28;20096;-90
2023/07/01 13:53:12;;;;;;;12.57;9.23;;;;;;;;;;8292273;28;20046;-90
2023/07/01 14:01:39;;;;;;;13.05;9.50;;;;;;;;;;8247100;28;20410;-91
2023/07/01 14:05:46;;;;;;;12.32;9.52;;;;;;;;;;8246053;28;20066;-92
2023/07/01 14:09:52;;;;;;;12.68;10.02;;;;;;;;;;8238190;28;20163;-93
2023/07/01 14:13:59;;;;;;;13.90;10.05;;;;;;;;;;8260997;28;20129;-91
2023/07/01 14:18:05;;;;;;;13.13;9.80;;;;;;;;;;8228284;28;20477;-92
2023/07/01 14:22:12;;;;;;;12.80;10.13;;;;;;;;;;8262201;28;20067;-91
2023/07/01 14:26:28;;;;;;;14.23;10.27;;;;;;;;;;8263025;28;20141;-91
2023/07/01 14:31:08;;;;;;;12.30;10.00;;;;;;;;;;8251484;28;20047;-92
2023/07/01 14:35:12;;;;;;;14.75;9.73;;;;;;;;;;8248136;28;20074;-91
2023/07/01 14:39:30;;;;;;;12.18;9.32;;;;;;;;;;8261301;28;20124;-91
2023/07/01 14:43:36;;;;;;;14.85;10.07;;;;;;;;;;8254754;28;20163;-91
2023/07/01 14:47:40;;;;;;;14.80;10.43;;;;;;;;;;8252704;28;20471;-92
2023/07/01 14:51:43;;;;;;;11.55;9.40;;;;;;;;;;8236102;28;20085;-95
2023/07/01 14:55:51;;;;;;;13.43;10.18;;;;;;;;;;8240395;28;20058;-95
2023/07/01 15:00:15;;;;;;;14.43;10.18;;;;;;;;;;8218245;23;20515;-96
2023/07/01 15:04:19;;;;;;;12.38;10.00;;;;;;;;;;8197831;28;20057;-96
2023/07/01 15:08:27;;;;;;;12.48;10.40;;;;;;;;;;8249740;23;20575;-95
2023/07/01 15:12:31;;;;;;;14.40;10.23;;;;;;;;;;8291951;28;20413;-95
2023/07/01 15:16:37;;;;;;;14.88;10.85;;;;;;;;;;8298353;28;20067;-94
2023/07/01 15:20:41;;;;;;;13.13;10.73;;;;;;;;;;8298902;28;20054;-93
2023/07/01 15:24:44;;;;;;;18.77;11.10;;;;;;;;;;8296461;28;20458;-93
2023/07/01 15:28:49;;;;;;;12.40;10.55;;;;;;;;;;8282043;28;20065;-91
2023/07/01 15:32:57;;;;;;;15.20;11.25;;;;;;;;;;8292423;28;20060;-93
2023/07/01 15:37:01;;;;;;;13.60;11.13;;;;;;;;;;8284650;28;20133;-89
2023/07/01 15:41:07;;;;;;;13.90;11.15;;;;;;;;;;8301748;28;20124;-92
2023/07/01 15:45:12;;;;;;;15.98;10.90;;;;;;;;;;8304093;28;20557;-90
2023/07/01 15:49:26;;;;;;;14.73;11.30;;;;;;;;;;8313732;28;20080;-93
2023/07/01 15:53:53;;;;;;;;;;;;;;;;;;;;;
2023/07/01 15:58:39;;;;;;;15.57;11.63;;;;;;;;;;8307707;28;20062;-96
2023/07/01 16:02:47;;;;;;;16.27;12.02;;;;;;;;;;8288091;28;20050;-95
2023/07/01 16:06:54;;;;;;;16.30;12.32;;;;;;;;;;8307880;28;20156;-92
2023/07/01 16:11:10;;;;;;;15.85;12.10;;;;;;;;;;8310562;28;20057;-95
2023/07/01 16:15:24;;;;;;;16.02;12.00;;;;;;;;;;8309690;28;20049;-95
2023/07/01 16:19:27;;;;;;;16.23;11.95;;;;;;;;;;8285778;28;20108;-89
2023/07/01 16:23:33;;;;;;;15.45;11.75;;;;;;;;;;8297723;28;20074;-89
2023/07/01 16:27:36;;;;;;;17.15;11.75;;;;;;;;;;8299042;28;20115;-89
2023/07/01 16:31:39;;;;;;;16.50;12.23;;;;;;;;;;8299825;28;20057;-90
2023/07/01 16:36:15;;;;;;;16.17;11.85;;;;;;;;;;8294486;28;20137;-91
2023/07/01 16:40:37;;;;;;;16.60;12.35;;;;;;;;;;8298071;28;20052;-90
2023/07/01 16:44:40;;;;;;;16.55;12.25;;;;;;;;;;8298016;28;20141;-93
2023/07/01 16:48:50;;;;;;;18.83;12.65;;;;;;;;;;8300656;28;20057;-93
2023/07/01 16:52:53;;;;;;;17.45;13.73;;;;;;;;;;8297256;28;20054;-92
2023/07/01 16:56:59;;;;;;;19.63;16.25;;;;;;;;;;8283915;28;20057;-93
2023/07/01 17:01:04;;;;;;;17.25;12.88;;;;;;;;;;8300290;28;20053;-93
2023/07/01 17:05:11;;;;;;;17.67;13.38;;;;;;;;;;8286155;28;20077;-93
2023/07/01 17:09:41;;;;;;;17.70;13.07;;;;;;;;;;8298874;28;20128;-92
2023/07/01 17:13:46;;;;;;;17.58;13.73;;;;;;;;;;8286132;28;20123;-93
2023/07/01 17:17:50;;;;;;;19.48;14.63;;;;;;;;;;8299980;28;20125;-91
2023/07/01 17:21:54;;;;;;;20.02;13.50;;;;;;;;;;8299672;28;20058;-93
2023/07/01 17:25:57;;;;;;;20.25;15.95;;;;;;;;;;8299446;28;20133;-91
2023/07/01 17:30:02;;;;;;;24.63;15.82;;;;;;;;;;8299811;28;20068;-92
2023/07/01 17:34:06;;;;;;;20.60;15.75;;;;;;;;;;8299794;28;20104;-93
2023/07/01 17:38:09;;;;;;;21.58;16.50;;;;;;;;;;8299764;28;20501;-92
2023/07/01 17:42:13;;;;;;;23.17;17.25;;;;;;;;;;8293793;28;20052;-93
2023/07/01 17:46:18;;;;;;;24.50;17.83;;;;;;;;;;8295255;28;20064;-92
2023/07/01 17:50:22;;;;;;;21.45;17.17;;;;;;;;;;8296283;28;20417;-92
2023/07/01 17:54:25;;;;;;;20.85;16.70;;;;;;;;;;8297355;28;20050;-94
2023/07/01 17:58:29;;;;;;;18.63;14.80;;;;;;;;;;8278894;28;20046;-94
2023/07/01 18:02:34;;;;;;;20.42;15.77;;;;;;;;;;8283417;28;20045;-94
2023/07/01 18:06:38;;;;;;;22.23;17.08;;;;;;;;;;8294660;28;20061;-94
2023/07/01 18:10:43;;;;;;;22.55;16.33;;;;;;;;;;8280241;28;20093;-94
2023/07/01 18:14:46;;;;;;;23.58;18.00;;;;;;;;;;8280406;28;20074;-93
2023/07/01 18:19:01;;;;;;;24.02;18.73;;;;;;;;;;8296835;28;20050;-95
2023/07/01 18:23:06;;;;;;;22.25;17.58;;;;;;;;;;8297101;28;20136;-96
2023/07/01 18:27:10;;;;;;;24.10;17.30;;;;;;;;;;8279396;28;20061;-93
2023/07/01 18:31:15;;;;;;;24.17;18.25;;;;;;;;;;8291087;28;20057;-94
2023/07/01 18:35:20;;;;;;;23.80;18.30;;;;;;;;;;8287408;28;20061;-91
2023/07/01 18:39:24;;;;;;;24.45;18.17;;;;;;;;;;8281683;28;20141;-91
2023/07/01 18:43:37;;;;;;;24.52;18.80;;;;;;;;;;8273083;28;20055;-95
2023/07/01 18:47:44;;;;;;;21.10;16.75;;;;;;;;;;8281780;28;20078;-92
2023/07/01 18:51:50;;;;;;;24.85;18.35;;;;;;;;;;8293266;28;20081;-94
2023/07/01 18:55:54;;;;;;;27.45;18.33;;;;;;;;;;8287347;28;20061;-92
2023/07/01 19:00:03;;;;;;;25.98;18.45;;;;;;;;;;8293974;28;20054;-95
2023/07/01 19:04:06;;;;;;;21.58;17.42;;;;;;;;;;8266303;28;20056;-92
2023/07/01 19:08:14;;;;;;;25.02;19.58;;;;;;;;;;8280558;28;20132;-92
2023/07/01 19:12:25;;;;;;;22.50;18.50;;;;;;;;;;8288446;28;20132;-93
2023/07/01 19:16:30;;;;;;;27.30;19.10;;;;;;;;;;8298275;28;20058;-93
2023/07/01 19:20:42;;;;;;;27.25;20.02;;;;;;;;;;8299620;28;20457;-92
2023/07/01 19:24:50;;;;;;;26.73;20.63;;;;;;;;;;8301664;28;20061;-93
2023/07/01 19:28:56;;;;;;;28.98;21.33;;;;;;;;;;8284670;28;20074;-93
2023/07/01 19:33:02;;;;;;;30.35;21.95;;;;;;;;;;8302659;28;20060;-92
2023/07/01 19:37:06;;;;;;;29.20;22.33;;;;;;;;;;8289653;28;20409;-94
2023/07/01 19:41:13;;;;;;;31.17;22.15;;;;;;;;;;8300952;28;20120;-93
2023/07/01 19:45:17;;;;;;;31.50;22.83;;;;;;;;;;8301835;28;20056;-94
2023/07/01 19:49:20;;;;;;;32.83;23.02;;;;;;;;;;8302224;28;20058;-93
2023/07/01 19:53:25;;;;;;;36.60;24.35;;;;;;;;;;8289038;28;20061;-94
2023/07/01 19:57:34;;;;;;;37.15;25.25;;;;;;;;;;8301504;28;20119;-96
2023/07/01 20:01:40;;;;;;;37.70;27.02;;;;;;;;;;8301820;28;20507;-94
2023/07/01 20:05:51;;;;;;;35.97;25.25;;;;;;;;;;8298786;28;20057;-93
2023/07/01 20:09:56;;;;;;;38.75;26.70;;;;;;;;;;8268227;28;20148;-95
2023/07/01 20:14:01;;;;;;;40.72;26.88;;;;;;;;;;8298738;28;20065;-92
2023/07/01 20:18:05;;;;;;;44.47;29.65;;;;;;;;;;8287340;28;20125;-94
2023/07/01 20:22:09;;;;;;;45.20;30.27;;;;;;;;;;8287946;28;20050;-93
2023/07/01 20:26:12;;;;;;;44.22;28.75;;;;;;;;;;8299925;28;20162;-94
2023/07/01 20:30:20;;;;;;;48.95;29.75;;;;;;;;;;8301140;28;20088;-91
2023/07/01 20:34:25;;;;;;;47.47;29.85;;;;;;;;;;8299545;28;20058;-92
2023/07/01 20:38:29;;;;;;;49.88;29.35;;;;;;;;;;8303724;28;20490;-93
2023/07/01 20:42:34;;;;;;;53.63;31.52;;;;;;;;;;8303994;28;20136;-90
2023/07/01 20:46:46;;;;;;;64.50;34.35;;;;;;;;;;8297198;28;20058;-90
2023/07/01 20:50:50;;;;;;;58.00;32.53;;;;;;;;;;8294146;28;20050;-91
2023/07/01 20:54:54;;;;;;;54.03;31.35;;;;;;;;;;8300286;28;20080;-91
2023/07/01 20:58:57;;;;;;;55.55;31.30;;;;;;;;;;8300058;28;20058;-91
2023/07/01 21:03:03;;;;;;;53.28;31.63;;;;;;;;;;8286952;28;20081;-91
2023/07/01 21:07:15;;;;;;;50.92;29.33;;;;;;;;;;8286206;28;20050;-90
2023/07/01 21:11:20;;;;;;;58.05;31.67;;;;;;;;;;8274584;28;20058;-91
2023/07/01 21:15:23;;;;;;;52.30;28.90;;;;;;;;;;8299272;28;20541;-91
2023/07/01 21:19:28;;;;;;;54.55;31.08;;;;;;;;;;8297646;28;20050;-91
2023/07/01 21:23:32;;;;;;;60.13;31.88;;;;;;;;;;8285784;28;20057;-91
2023/07/01 21:28:00;;;;;;;66.18;33.08;;;;;;;;;;8298655;28;20173;-91
2023/07/01 21:32:04;;;;;;;54.42;31.35;;;;;;;;;;8294664;28;20054;-91
2023/07/01 21:36:09;;;;;;;52.83;31.05;;;;;;;;;;8280880;28;20041;-89
2023/07/01 21:40:15;;;;;;;58.50;31.25;;;;;;;;;;8298187;28;20049;-89
2023/07/01 21:44:18;;;;;;;57.92;30.63;;;;;;;;;;8288064;28;20050;-91
2023/07/01 21:48:24;;;;;;;58.53;31.88;;;;;;;;;;8297370;28;20418;-90
2023/07/01 21:52:29;;;;;;;61.78;32.22;;;;;;;;;;8297760;28;20073;-90
2023/07/01 21:56:38;;;;;;;66.18;34.20;;;;;;;;;;8297665;28;20521;-90
2023/07/01 22:00:43;;;;;;;64.80;34.78;;;;;;;;;;8297170;28;20421;-90
2023/07/01 22:04:48;;;;;;;60.17;32.42;;;;;;;;;;8296295;28;20058;-89
2023/07/01 22:08:52;;;;;;;68.38;33.92;;;;;;;;;;8285093;28;20136;-89
2023/07/01 22:12:56;;;;;;;77.13;37.60;;;;;;;;;;8296180;28;20081;-89
2023/07/01 22:16:58;;;;;;;64.55;32.67;;;;;;;;;;8301511;28;20624;-89
2023/07/01 22:21:02;;;;;;;70.53;34.20;;;;;;;;;;8296656;28;20133;-89
2023/07/01 22:25:07;;;;;;;76.93;35.70;;;;;;;;;;8296887;28;20137;-89
2023/07/01 22:29:10;;;;;;;79.68;35.90;;;;;;;;;;8296396;28;20145;-88
2023/07/01 22:33:13;;;;;;;72.80;34.80;;;;;;;;;;8301327;28;20149;-88
2023/07/01 22:37:16;;;;;;;74.22;34.03;;;;;;;;;;8303039;28;20065;-88
2023/07/01 22:41:21;;;;;;;60.67;32.03;;;;;;;;;;8290100;28;20421;-88
2023/07/01 22:45:24;;;;;;;60.97;31.48;;;;;;;;;;8302036;28;20057;-88
2023/07/01 22:49:27;;;;;;;60.85;32.35;;;;;;;;;;8302843;28;20177;-88
2023/07/01 22:53:30;;;;;;;60.40;31.88;;;;;;;;;;8301394;28;20141;-90
2023/07/01 22:57:34;;;;;;;60.17;30.50;;;;;;;;;;8289086;28;20530;-91
2023/07/01 23:01:37;;;;;;;63.40;32.30;;;;;;;;;;8299949;28;20054;-87
2023/07/01 23:05:40;;;;;;;60.28;30.27;;;;;;;;;;8301985;28;20156;-87
2023/07/01 23:09:43;;;;;;;62.88;30.85;;;;;;;;;;8301870;28;20133;-87
2023/07/01 23:13:47;;;;;;;58.85;31.98;;;;;;;;;;8302081;28;20514;-87
2023/07/01 23:17:50;;;;;;;73.65;34.75;;;;;;;;;;8301746;28;20145;-87
2023/07/01 23:21:54;;;;;;;70.95;33.00;;;;;;;;;;8301790;28;20058;-87
2023/07/01 23:25:56;;;;;;;66.82;32.70;;;;;;;;;;8301126;28;20464;-87
2023/07/01 23:30:00;;;;;;;69.20;32.15;;;;;;;;;;8281834;28;20058;-87
2023/07/01 23:34:03;;;;;;;62.58;30.00;;;;;;;;;;8300470;28;20064;-87
2023/07/01 23:38:06;;;;;;;71.57;32.63;;;;;;;;;;8283715;28;20073;-87
2023/07/01 23:42:10;;;;;;;80.53;34.63;;;;;;;;;;8299953;28;20502;-87
2023/07/01 23:46:14;;;;;;;64.60;31.40;;;;;;;;;;8300535;28;20137;-87
2023/07/01 23:50:18;;;;;;;79.78;35.35;;;;;;;;;;8295967;28;20144;-89
2023/07/01 23:54:23;;;;;;;70.05;33.03;;;;;;;;;;8300171;28;20181;-90
2023/07/01 23:58:26;;;;;;;70.13;32.85;;;;;;;;;;8301128;28;20509;-90
